Strona główna
METAR-TAF:

METAR-TAF

Lotnisko :

Port lotniczy Vršac

Vršac, Serbia

Szerokość geograficzna: 45-09N, Długość geograficzna: 021-19E, wysokość: 83 m

Aktualna obserwacja pogody

Raport powstał 10 minut temu, godzina 14:30 UTC
Wiatr 10 kt z kierunków zmiennych
Temperatura 19°C
Wilgotność 24%
Ciśnienie 1023 hPa
Widzialność 10 km lub więcej
Brak chmur poniżej 1500 m i brak chmur cumulonimbus

METAR: LYVR 231430Z VRB10KT CAVOK 19/M02 Q1023 NOSIG

czas: 15:40 (14:40 UTC)

Prognoza

Raport powstał 3 godziny i 40 minut temu, godzina 11:00 UTC
Prognoza ważna od 23 godzina 12 UTC do 24 godzina 12 UTC
Wiatr 8 kt od północno-północny zachód
Widzialność 10 km lub więcej
Brak chmur poniżej 1500 m i brak chmur cumulonimbus
Przejściowo
od 24 godzina 04 UTC do 24 godzina 07 UTC
Widzialność: 5000 m
zamglenie

TAF: LYVR 231100Z 2312/2412 34008KT CAVOK TX19/2314Z TN01/2405Z TEMPO 2404/2407 5000 BR

Obserwacja i prognoza pogody dla ponad 4000 lotnisk (raport METAR i TAF).

Dostępne stacje oznaczono żółtymi i czerwonymi punktami na mapie.

Najedź kursorem aby zobaczyć nazwę stacji.

Kliknij aby zobaczyć obserwacje i prognozy pogody.

Aby zmienić mapę: kliknij na zielony przycisk z czarnym krzyżykiem, aby powiększyć; na zielony przycisk z myślnikiem, aby pomniejszyć; na zielone strzałki, aby przejść do map sąsiednich.


METAR-TAF: